createdAt,value
2023-04-17T00:08:34.052Z,5.86
2023-04-17T00:18:40.042Z,5.81
2023-04-17T00:28:47.295Z,5.70
2023-04-17T00:38:51.453Z,5.66
2023-04-17T00:48:57.566Z,5.67
2023-04-17T00:59:05.017Z,5.68
2023-04-17T01:09:11.416Z,5.60
2023-04-17T01:19:18.118Z,5.55
2023-04-17T01:29:23.753Z,5.47
2023-04-17T01:39:29.388Z,5.36
2023-04-17T01:49:35.485Z,5.27
2023-04-17T01:59:41.365Z,5.17
2023-04-17T02:09:47.294Z,5.09
2023-04-17T02:19:53.008Z,4.98
2023-04-17T02:29:58.757Z,4.87
2023-04-17T02:40:06.750Z,4.76
2023-04-17T02:50:14.116Z,4.66
2023-04-17T03:00:20.932Z,4.79
2023-04-17T03:10:26.639Z,4.96
2023-04-17T03:20:32.374Z,5.06
2023-04-17T03:30:38.256Z,5.13
2023-04-17T03:40:44.399Z,5.23
2023-04-17T03:50:50.444Z,5.33
2023-04-17T04:00:58.895Z,5.37
2023-04-17T04:11:04.538Z,5.42
2023-04-17T04:21:12.159Z,5.42
2023-04-17T04:31:19.419Z,5.43
2023-04-17T04:41:25.381Z,5.45
2023-04-17T04:51:32.065Z,5.51
2023-04-17T05:01:39.902Z,5.58
2023-04-17T05:11:46.368Z,5.65
2023-04-17T05:21:52.418Z,5.76
2023-04-17T05:31:58.550Z,5.95
2023-04-17T05:42:04.177Z,6.19
2023-04-17T05:52:09.895Z,6.34
2023-04-17T06:02:15.716Z,6.53
2023-04-17T06:12:21.728Z,6.74
2023-04-17T06:22:27.627Z,7.11
2023-04-17T06:32:33.578Z,7.34
2023-04-17T06:42:39.510Z,7.47
2023-04-17T06:52:45.522Z,7.49
2023-04-17T07:02:51.680Z,7.84
2023-04-17T07:12:57.547Z,9.21
2023-04-17T07:23:03.384Z,9.66
2023-04-17T07:33:09.007Z,10.50
2023-04-17T07:43:15.396Z,15.09
2023-04-17T07:53:22.204Z,20.43
2023-04-17T08:03:28.004Z,23.12
2023-04-17T08:13:32.676Z,28.18
2023-04-17T08:23:38.325Z,30.79
2023-04-17T08:33:44.021Z,29.93
2023-04-17T08:43:51.957Z,24.66
2023-04-17T08:53:57.823Z,21.59
2023-04-17T09:04:04.003Z,19.19
2023-04-17T09:14:33.241Z,18.42
2023-04-17T09:24:38.995Z,17.98
2023-04-17T09:34:45.093Z,17.99
2023-04-17T09:44:50.814Z,17.26
2023-04-17T09:54:57.166Z,16.15
2023-04-17T10:05:07.388Z,15.56
2023-04-17T10:15:17.325Z,15.71
2023-04-17T10:25:25.331Z,16.19
2023-04-17T10:35:40.738Z,16.44
2023-04-17T10:46:02.861Z,16.69
2023-04-17T10:56:08.849Z,16.03
2023-04-17T11:06:15.551Z,15.42
2023-04-17T11:16:22.578Z,15.03
2023-04-17T11:26:28.205Z,14.56
2023-04-17T11:36:35.559Z,14.66
2023-04-17T11:46:41.387Z,14.60
2023-04-17T11:57:01.785Z,13.95
2023-04-17T12:07:09.423Z,13.65
2023-04-17T12:17:15.300Z,13.24
2023-04-17T12:27:21.648Z,12.43
2023-04-17T12:37:27.329Z,11.81
2023-04-17T12:47:33.105Z,11.33
2023-04-17T12:57:40.160Z,11.00
2023-04-17T13:07:46.468Z,11.02
2023-04-17T13:17:52.178Z,11.32
2023-04-17T13:27:58.067Z,11.85
2023-04-17T13:38:04.101Z,12.40
2023-04-17T13:48:09.941Z,12.61
2023-04-17T13:58:15.791Z,12.91
2023-04-17T14:08:21.892Z,13.36
2023-04-17T14:18:27.574Z,13.60
2023-04-17T14:28:33.225Z,13.69
2023-04-17T14:38:39.116Z,13.72
2023-04-17T14:48:54.778Z,13.72
2023-04-17T14:59:01.703Z,13.80
2023-04-17T15:09:07.472Z,13.62
2023-04-17T15:19:13.588Z,13.01
2023-04-17T15:29:19.661Z,12.19
2023-04-17T15:39:25.448Z,11.41
2023-04-17T15:49:31.124Z,11.14
2023-04-17T15:59:36.792Z,10.99
2023-04-17T16:09:44.389Z,10.82
2023-04-17T16:19:50.824Z,10.69
2023-04-17T16:29:56.868Z,10.53
2023-04-17T16:40:05.179Z,10.38
2023-04-17T16:50:12.774Z,10.29
2023-04-17T17:00:19.646Z,10.20
2023-04-17T17:10:25.296Z,10.16
2023-04-17T17:20:31.060Z,10.08
2023-04-17T17:30:36.830Z,10.00
2023-04-17T17:40:42.535Z,9.95
2023-04-17T17:50:48.963Z,9.92
2023-04-17T18:00:54.611Z,9.88
2023-04-17T18:11:01.686Z,9.79
2023-04-17T18:21:11.228Z,9.73
2023-04-17T18:31:17.149Z,9.70
2023-04-17T18:41:23.166Z,9.67
2023-04-17T18:51:28.993Z,9.69
2023-04-17T19:01:35.189Z,9.69
2023-04-17T19:11:41.219Z,9.68
2023-04-17T19:21:47.077Z,9.67
2023-04-17T19:31:52.869Z,9.64
2023-04-17T19:41:58.810Z,9.62
2023-04-17T19:52:04.878Z,9.58
2023-04-17T20:02:11.604Z,9.51
2023-04-17T20:12:17.481Z,9.47
2023-04-17T20:22:23.350Z,9.40
2023-04-17T20:32:29.167Z,9.37
2023-04-17T20:42:35.155Z,9.27
2023-04-17T20:52:40.831Z,9.15
2023-04-17T21:02:46.689Z,9.00
2023-04-17T21:12:52.491Z,8.83
2023-04-17T21:22:58.278Z,8.67
2023-04-17T21:33:04.115Z,8.54
2023-04-17T21:43:10.056Z,8.48
2023-04-17T21:53:15.786Z,8.43
2023-04-17T22:03:23.875Z,8.37
2023-04-17T22:13:29.711Z,8.30
2023-04-17T22:23:35.517Z,8.15
2023-04-17T22:33:41.354Z,8.03
2023-04-17T22:43:50.658Z,7.99
2023-04-17T22:53:56.721Z,7.94
2023-04-17T23:04:02.444Z,7.83
2023-04-17T23:14:08.323Z,7.71
2023-04-17T23:24:14.665Z,7.62
2023-04-17T23:34:20.530Z,7.56
2023-04-17T23:44:26.166Z,7.53
2023-04-17T23:54:31.946Z,7.48
